Alice International Airport Alice US
ICAO: KALI
IATA: ALI
Category: Medium
Scheduled Services: No

Elevation: 178 ft
TransAlt. 18000 ft.

Airport Communications:
KINGSVILLE APP:119.9
ASOS:119.225
KINGSVILLE DEP:119.9
SAN ANGELO RDO:122.6
CTAF/UNICOM:123

KALI Zoom In..

If you have problems with the map follow the link
https://www.worldairports.se/pages/airport.php?
ICAO=KALI

Runways:

(A) RW 13 length 5997 ft width 100 ft
LOC 109.30 / hdg 128

(B) RW 17 length 4490 ft width 100 ft
LOC 109.30 / hdg 173

(C) RW 31 length 5997 ft width 100 ft
LOC 109.30 / hdg 308

(D) RW 35 length 4490 ft width 100 ft
LOC 109.30 / hdg 353

Location; KALI
Day. 21 / Time. 18.53 Zulu
* Altimeter: 30.18
* Temperature: 21° c. 69.8°f.
* Wind from: 040° Speed 12 kn.
Dewpoint: 14° c.
Visibility: 10 Statute Miles.
Clouds: Overcast 2300 ft.

KALI 211853Z AUTO 04012KT 10SM OVC023 21/14 A3018 RMK AO2 SLP218 T02110139


Wind From 040°
Speed 12 kn.

 
 
jpsmedia.com for Web Design worldairports.se 2018   terms of use